Relevés horaires Matro (Suisse)


Relevés horaires à Matro - Dimanche 27 Juill. 2014
Heure UTC1 Température [°C] Vent [km/h] Hum. [%] Pres.4 [hPa] Visi. [Km] Nébu. [octa] Préc.5 [mm] Cond.
2m. Res. Ros. Dir.2 Vit. Moy. Raf.3
23:00 10.1 6.6 5.1 NNO 31.5 37.0 44.4 71 850(-0.2/3h) -- -- -- --
22:00 10.0 6.2 5.7 NNO 35.2 37.0 51.9 75 850(0.2/3h) -- -- -- --
21:00 10.2 6.7 5.4 NNO 31.5 33.3 51.9 72 850(0.2/3h) -- -- -- --
20:00 10.5 7.5 5.0 NNO 25.9 31.5 40.7 69 850(0.2/3h) -- -- -- --
19:00 10.5 7 5.4 NNO 33.3 33.3 44.4 71 850(0.1/3h) -- -- -- --
18:00 11.2 8.7 5.7 NNO 22.2 33.3 50.0 69 850(0.2/3h) -- -- -- --
17:00 11.9 9.4 5.9 NO 24.1 22.2 42.6 67 850(-0.1/3h) -- -- -- --
16:00 12.0 10 5.9 NNO 18.5 20.4 31.5 66 850(-0.4/3h) -- -- -- --
15:00 11.5 9.1 5.7 NNO 22.2 33.3 50.0 67 850(-0.5/3h) -- -- -- --
14:00 11.4 8.4 5.7 NNO 29.6 33.3 50.0 68 850(0.1/3h) -- -- -- --
13:00 11.5 8.7 5.9 NNO 27.8 27.8 38.9 68 850(0.6/3h) -- -- -- --
12:00 11.3 8.8 6.6 NNO 22.2 33.3 51.9 73 850(0.9/3h) -- -- -- --
11:00 11.1 8.4 5.7 NNO 24.1 24.1 37.0 69 850(0.9/3h) -- -- -- --
10:00 10.8 8.3 6.6 NNO 20.4 22.2 31.5 75 850(0.9/3h) -- -- -- --
09:00 10.0 7.2 5.6 NNO 22.2 33.3 51.9 74 850(1.1/3h) -- -- -- --
08:00 9.6 6.2 5.0 NNO 27.8 31.5 51.9 73 850(1.0/3h) -- -- -- --
07:00 9.2 5.6 4.8 NNO 29.6 33.3 50.0 74 850(0.9/3h) -- -- -- --
06:00 8.7 4.3 4.6 NNO 38.9 40.7 55.6 75 850(0.6/3h) -- -- -- --
05:00 8.4 4.3 4.0 NNO 33.3 37.0 53.7 74 850(0.5/3h) -- -- -- --
04:00 8.6 4.4 3.7 NNO 35.2 37.0 51.9 71 850(-0.1/3h) -- -- -- --
03:00 8.5 4 3.6 NNO 38.9 40.7 55.6 71 850(-0.3/3h) -- -- -- --
02:00 8.4 4 3.5 NNO 37.0 38.9 55.6 71 850(-0.4/3h) -- -- -- --
01:00 8.2 4 3.6 NNO 33.3 37.0 51.9 73 850(-0.1/3h) -- -- -- --
00:00 8.2 3.7 3.3 NNO 37.0 37.0 51.9 71 850(0.0/3h) -- -- -- --

1 Coordinated Universal Time. Actuellement il est 13:00 locale et 11:00 UTC.

2 Le vent souffle depuis la direction indiquée vers la direction oposée.

3 Les rafales max. sont disponible 40 min après l'heure du relevé.

4 Pour les stations d'altitude (plus de 600m) le géopotentiel du niveau le plus proche de la pression obligatoire est indiqué.

5 Les stations disposant d'un diffuseur peuvent indiquer "trace". Cela signifie que des précipitations ont touchés le sol mais que la quantité est inférieure à 0.1 mm.

Copyright

Les données affichées sur cette page sont la propriété exclusive de Météo Suisse.

Récapitulatif de la journée
Température [°C] Vent [km/h] Ensoleillement4 [h] Precipitations totale5 [mm] Pression [Hpa]
Min1 Max.2 Moy.3 Max. Min Max.
7.7 12.2 32.9 55.6 7 h 18 min 0 850.0 850.0

1 Température minimale relevée entre 18:00 UTC la veille et 18:00 UTC le jour donné.

2 Température maximale relevée entre 06:00 UTC le jour donné et 06:00 UTC le lendemain.

3 Vent moyen de la journée basé sur les relevés horaires.

4 Ensoleillement en heures relevé entre 06:00 UTC la veille et 06:00 UTC le jour donné.

5 Précipitations totales tombées entre 06:00 UTC la jour donné et 06:00 UTC le lendemain.

Graphiques horaires